Chicot, Arkansas
Current Conditions -  °F | °C
As of 11:37 PM on Sunday 21 Dec 2014 (Local Time) from KGLH Reporting Station
Haze Haze  
Wind Chill: 44°   Ceiling: 700
Heat Index: 49°   Visibility: 6mi
Dew Point: 46°   Wind: 12mph
Humidity: 90%   Direction: 160°SSE
Pressure: 29.92"   Gusts: NA
Location:  33.1306°N, 91.2896°W
Report Text: KGLH 220537Z AUTO 16010KT 6SM BR BKN007 09/08 A2992 RMK AO2 T00940078
Loading
Personal Weather Stations






























Interactive Weather Map New forecast layout! Learn more

10-Day Weather Forecast

Advertisements
Track Severe Weather on mobile